sensor_id;sensor_type;location;lat;lon;timestamp;P1;durP1;ratioP1;P2;durP2;ratioP2
35919;SDS011;36160;53.370;-6.196;2023-01-24T00:00:59;38.28;;;24.77;;
35919;SDS011;36160;53.370;-6.196;2023-01-24T00:03:25;42.13;;;24.02;;
35919;SDS011;36160;53.370;-6.196;2023-01-24T00:05:51;37.80;;;22.83;;
35919;SDS011;36160;53.370;-6.196;2023-01-24T00:08:18;36.65;;;20.63;;
35919;SDS011;36160;53.370;-6.196;2023-01-24T00:10:45;33.40;;;21.65;;
35919;SDS011;36160;53.370;-6.196;2023-01-24T00:13:12;49.55;;;28.50;;
35919;SDS011;36160;53.370;-6.196;2023-01-24T00:15:39;37.58;;;26.10;;
35919;SDS011;36160;53.370;-6.196;2023-01-24T00:18:05;43.78;;;30.63;;
35919;SDS011;36160;53.370;-6.196;2023-01-24T00:20:30;48.70;;;29.95;;
35919;SDS011;36160;53.370;-6.196;2023-01-24T00:22:56;43.10;;;27.73;;
35919;SDS011;36160;53.370;-6.196;2023-01-24T00:25:22;42.92;;;27.20;;
35919;SDS011;36160;53.370;-6.196;2023-01-24T00:27:48;36.13;;;24.35;;
35919;SDS011;36160;53.370;-6.196;2023-01-24T00:30:14;34.08;;;21.25;;
35919;SDS011;36160;53.370;-6.196;2023-01-24T00:32:40;39.85;;;24.95;;
35919;SDS011;36160;53.370;-6.196;2023-01-24T00:35:07;35.72;;;21.08;;
35919;SDS011;36160;53.370;-6.196;2023-01-24T00:37:33;38.60;;;24.33;;
35919;SDS011;36160;53.370;-6.196;2023-01-24T00:39:58;33.65;;;21.23;;
35919;SDS011;36160;53.370;-6.196;2023-01-24T00:42:24;33.75;;;21.25;;
35919;SDS011;36160;53.370;-6.196;2023-01-24T00:44:50;39.30;;;25.45;;
35919;SDS011;36160;53.370;-6.196;2023-01-24T00:47:16;35.47;;;19.42;;
35919;SDS011;36160;53.370;-6.196;2023-01-24T00:49:42;36.22;;;21.42;;
35919;SDS011;36160;53.370;-6.196;2023-01-24T00:52:07;35.42;;;21.40;;
35919;SDS011;36160;53.370;-6.196;2023-01-24T00:54:33;39.63;;;23.13;;
35919;SDS011;36160;53.370;-6.196;2023-01-24T00:56:58;33.25;;;20.17;;
35919;SDS011;36160;53.370;-6.196;2023-01-24T00:59:24;32.13;;;19.60;;
35919;SDS011;36160;53.370;-6.196;2023-01-24T01:01:50;35.88;;;22.35;;
35919;SDS011;36160;53.370;-6.196;2023-01-24T01:04:15;30.70;;;21.13;;
35919;SDS011;36160;53.370;-6.196;2023-01-24T01:06:41;28.50;;;20.15;;
35919;SDS011;36160;53.370;-6.196;2023-01-24T01:09:09;33.33;;;20.48;;
35919;SDS011;36160;53.370;-6.196;2023-01-24T01:11:36;34.10;;;21.92;;
35919;SDS011;36160;53.370;-6.196;2023-01-24T01:14:06;40.80;;;23.30;;
35919;SDS011;36160;53.370;-6.196;2023-01-24T01:16:33;37.08;;;23.70;;
35919;SDS011;36160;53.370;-6.196;2023-01-24T01:19:02;31.33;;;20.33;;
35919;SDS011;36160;53.370;-6.196;2023-01-24T01:21:29;35.65;;;22.58;;
35919;SDS011;36160;53.370;-6.196;2023-01-24T01:23:55;34.70;;;19.13;;
35919;SDS011;36160;53.370;-6.196;2023-01-24T01:26:21;38.53;;;22.98;;
35919;SDS011;36160;53.370;-6.196;2023-01-24T01:28:47;34.88;;;21.63;;
35919;SDS011;36160;53.370;-6.196;2023-01-24T01:31:13;32.40;;;21.25;;
35919;SDS011;36160;53.370;-6.196;2023-01-24T01:33:39;28.95;;;18.88;;
35919;SDS011;36160;53.370;-6.196;2023-01-24T01:36:05;29.00;;;19.00;;
35919;SDS011;36160;53.370;-6.196;2023-01-24T01:38:31;31.08;;;20.10;;
35919;SDS011;36160;53.370;-6.196;2023-01-24T01:40:57;28.08;;;17.95;;
35919;SDS011;36160;53.370;-6.196;2023-01-24T01:43:24;44.58;;;23.08;;
35919;SDS011;36160;53.370;-6.196;2023-01-24T01:45:58;31.58;;;19.88;;
35919;SDS011;36160;53.370;-6.196;2023-01-24T01:48:42;31.48;;;17.98;;
35919;SDS011;36160;53.370;-6.196;2023-01-24T01:51:20;28.48;;;17.85;;
35919;SDS011;36160;53.370;-6.196;2023-01-24T01:56:28;30.42;;;18.48;;
35919;SDS011;36160;53.370;-6.196;2023-01-24T01:58:54;33.35;;;19.27;;
35919;SDS011;36160;53.370;-6.196;2023-01-24T02:01:23;28.92;;;19.35;;
35919;SDS011;36160;53.370;-6.196;2023-01-24T02:03:51;29.88;;;20.25;;
35919;SDS011;36160;53.370;-6.196;2023-01-24T02:09:23;36.83;;;20.85;;
35919;SDS011;36160;53.370;-6.196;2023-01-24T02:11:53;31.17;;;20.50;;
35919;SDS011;36160;53.370;-6.196;2023-01-24T02:14:21;31.02;;;20.33;;
35919;SDS011;36160;53.370;-6.196;2023-01-24T02:17:19;28.02;;;18.08;;
35919;SDS011;36160;53.370;-6.196;2023-01-24T02:27:53;31.90;;;19.60;;
35919;SDS011;36160;53.370;-6.196;2023-01-24T02:30:20;33.33;;;20.30;;
35919;SDS011;36160;53.370;-6.196;2023-01-24T02:32:45;27.75;;;17.38;;
35919;SDS011;36160;53.370;-6.196;2023-01-24T02:35:24;23.58;;;15.15;;
35919;SDS011;36160;53.370;-6.196;2023-01-24T02:37:56;26.35;;;16.63;;
35919;SDS011;36160;53.370;-6.196;2023-01-24T02:40:24;30.45;;;18.27;;
35919;SDS011;36160;53.370;-6.196;2023-01-24T02:42:52;37.30;;;21.02;;
35919;SDS011;36160;53.370;-6.196;2023-01-24T02:45:26;36.45;;;22.35;;
35919;SDS011;36160;53.370;-6.196;2023-01-24T02:47:55;41.78;;;24.70;;
35919;SDS011;36160;53.370;-6.196;2023-01-24T02:50:22;40.85;;;23.25;;
35919;SDS011;36160;53.370;-6.196;2023-01-24T02:52:50;33.22;;;20.10;;
35919;SDS011;36160;53.370;-6.196;2023-01-24T02:55:35;41.08;;;23.20;;
35919;SDS011;36160;53.370;-6.196;2023-01-24T02:58:20;46.78;;;24.02;;
35919;SDS011;36160;53.370;-6.196;2023-01-24T03:00:46;46.60;;;24.55;;
35919;SDS011;36160;53.370;-6.196;2023-01-24T03:03:12;47.88;;;26.83;;
35919;SDS011;36160;53.370;-6.196;2023-01-24T03:05:38;45.63;;;23.27;;
35919;SDS011;36160;53.370;-6.196;2023-01-24T03:08:24;41.38;;;21.33;;
35919;SDS011;36160;53.370;-6.196;2023-01-24T03:10:51;36.25;;;19.60;;
35919;SDS011;36160;53.370;-6.196;2023-01-24T03:13:17;32.78;;;20.63;;
35919;SDS011;36160;53.370;-6.196;2023-01-24T03:16:02;36.10;;;21.05;;
35919;SDS011;36160;53.370;-6.196;2023-01-24T03:18:47;31.02;;;18.20;;
35919;SDS011;36160;53.370;-6.196;2023-01-24T03:21:31;27.52;;;17.55;;
35919;SDS011;36160;53.370;-6.196;2023-01-24T03:24:15;27.58;;;18.20;;
35919;SDS011;36160;53.370;-6.196;2023-01-24T03:26:59;19.50;;;12.77;;
35919;SDS011;36160;53.370;-6.196;2023-01-24T03:29:43;17.90;;;12.65;;
35919;SDS011;36160;53.370;-6.196;2023-01-24T03:32:27;25.10;;;14.48;;
35919;SDS011;36160;53.370;-6.196;2023-01-24T03:35:11;14.93;;;10.30;;
35919;SDS011;36160;53.370;-6.196;2023-01-24T03:37:36;15.25;;;8.30;;
35919;SDS011;36160;53.370;-6.196;2023-01-24T03:40:21;14.10;;;8.57;;
35919;SDS011;36160;53.370;-6.196;2023-01-24T03:42:46;16.33;;;8.60;;
35919;SDS011;36160;53.370;-6.196;2023-01-24T03:47:45;12.45;;;8.23;;
35919;SDS011;36160;53.370;-6.196;2023-01-24T03:53:10;13.82;;;9.40;;
35919;SDS011;36160;53.370;-6.196;2023-01-24T03:55:36;13.90;;;9.07;;
35919;SDS011;36160;53.370;-6.196;2023-01-24T03:58:02;16.50;;;10.15;;
35919;SDS011;36160;53.370;-6.196;2023-01-24T04:00:29;17.08;;;10.70;;
35919;SDS011;36160;53.370;-6.196;2023-01-24T04:02:54;14.77;;;9.82;;
35919;SDS011;36160;53.370;-6.196;2023-01-24T04:05:20;15.13;;;9.80;;
35919;SDS011;36160;53.370;-6.196;2023-01-24T04:07:46;17.88;;;10.52;;
35919;SDS011;36160;53.370;-6.196;2023-01-24T04:10:12;18.45;;;11.88;;
35919;SDS011;36160;53.370;-6.196;2023-01-24T04:12:39;17.08;;;10.80;;
35919;SDS011;36160;53.370;-6.196;2023-01-24T04:15:08;16.92;;;10.80;;
35919;SDS011;36160;53.370;-6.196;2023-01-24T04:17:38;17.88;;;11.85;;
35919;SDS011;36160;53.370;-6.196;2023-01-24T04:20:04;15.43;;;10.65;;
35919;SDS011;36160;53.370;-6.196;2023-01-24T04:22:30;17.83;;;12.15;;
35919;SDS011;36160;53.370;-6.196;2023-01-24T04:24:55;17.55;;;12.48;;
35919;SDS011;36160;53.370;-6.196;2023-01-24T04:27:21;16.35;;;11.88;;
35919;SDS011;36160;53.370;-6.196;2023-01-24T04:29:47;18.05;;;11.77;;
35919;SDS011;36160;53.370;-6.196;2023-01-24T04:32:12;18.92;;;12.20;;
35919;SDS011;36160;53.370;-6.196;2023-01-24T04:34:39;15.68;;;11.00;;
35919;SDS011;36160;53.370;-6.196;2023-01-24T04:37:04;16.92;;;11.57;;
35919;SDS011;36160;53.370;-6.196;2023-01-24T04:39:30;15.43;;;11.07;;
35919;SDS011;36160;53.370;-6.196;2023-01-24T04:41:56;19.25;;;11.32;;
35919;SDS011;36160;53.370;-6.196;2023-01-24T04:44:22;15.95;;;10.02;;
35919;SDS011;36160;53.370;-6.196;2023-01-24T04:46:47;19.02;;;11.20;;
35919;SDS011;36160;53.370;-6.196;2023-01-24T04:49:13;15.05;;;10.70;;
35919;SDS011;36160;53.370;-6.196;2023-01-24T04:51:39;14.60;;;9.95;;
35919;SDS011;36160;53.370;-6.196;2023-01-24T04:54:08;15.73;;;10.80;;
35919;SDS011;36160;53.370;-6.196;2023-01-24T04:56:35;18.48;;;11.95;;
35919;SDS011;36160;53.370;-6.196;2023-01-24T04:59:01;19.35;;;12.38;;
35919;SDS011;36160;53.370;-6.196;2023-01-24T05:01:26;22.13;;;13.85;;
35919;SDS011;36160;53.370;-6.196;2023-01-24T05:03:52;26.35;;;13.18;;
35919;SDS011;36160;53.370;-6.196;2023-01-24T05:06:23;22.08;;;14.18;;
35919;SDS011;36160;53.370;-6.196;2023-01-24T05:08:54;22.95;;;14.75;;
35919;SDS011;36160;53.370;-6.196;2023-01-24T05:11:21;24.65;;;12.68;;
35919;SDS011;36160;53.370;-6.196;2023-01-24T05:13:47;21.70;;;12.70;;
35919;SDS011;36160;53.370;-6.196;2023-01-24T05:16:13;20.80;;;13.45;;
35919;SDS011;36160;53.370;-6.196;2023-01-24T05:18:39;25.55;;;15.27;;
35919;SDS011;36160;53.370;-6.196;2023-01-24T05:21:08;24.33;;;13.93;;
35919;SDS011;36160;53.370;-6.196;2023-01-24T05:23:37;21.55;;;14.27;;
35919;SDS011;36160;53.370;-6.196;2023-01-24T05:26:03;21.90;;;13.10;;
35919;SDS011;36160;53.370;-6.196;2023-01-24T05:28:29;26.60;;;14.00;;
35919;SDS011;36160;53.370;-6.196;2023-01-24T05:30:59;21.67;;;13.65;;
35919;SDS011;36160;53.370;-6.196;2023-01-24T05:33:26;22.20;;;14.73;;
35919;SDS011;36160;53.370;-6.196;2023-01-24T05:36:05;23.20;;;12.18;;
35919;SDS011;36160;53.370;-6.196;2023-01-24T05:38:33;24.45;;;14.10;;
35919;SDS011;36160;53.370;-6.196;2023-01-24T05:40:59;32.72;;;15.00;;
35919;SDS011;36160;53.370;-6.196;2023-01-24T05:43:26;22.85;;;14.93;;
35919;SDS011;36160;53.370;-6.196;2023-01-24T05:45:56;27.05;;;15.15;;
35919;SDS011;36160;53.370;-6.196;2023-01-24T05:48:26;24.45;;;13.52;;
35919;SDS011;36160;53.370;-6.196;2023-01-24T05:53:24;26.40;;;15.80;;
35919;SDS011;36160;53.370;-6.196;2023-01-24T05:55:58;26.40;;;15.40;;
35919;SDS011;36160;53.370;-6.196;2023-01-24T05:58:28;26.25;;;14.77;;
35919;SDS011;36160;53.370;-6.196;2023-01-24T06:00:56;42.67;;;16.15;;
35919;SDS011;36160;53.370;-6.196;2023-01-24T06:03:22;23.52;;;10.65;;
35919;SDS011;36160;53.370;-6.196;2023-01-24T06:05:52;17.02;;;11.30;;
35919;SDS011;36160;53.370;-6.196;2023-01-24T06:08:19;12.35;;;9.20;;
35919;SDS011;36160;53.370;-6.196;2023-01-24T06:10:46;23.05;;;12.85;;
35919;SDS011;36160;53.370;-6.196;2023-01-24T06:13:12;30.17;;;12.35;;
35919;SDS011;36160;53.370;-6.196;2023-01-24T06:15:38;19.83;;;10.98;;
35919;SDS011;36160;53.370;-6.196;2023-01-24T06:18:04;19.83;;;10.23;;
35919;SDS011;36160;53.370;-6.196;2023-01-24T06:20:32;13.93;;;9.68;;
35919;SDS011;36160;53.370;-6.196;2023-01-24T06:25:28;13.25;;;8.85;;
35919;SDS011;36160;53.370;-6.196;2023-01-24T06:27:55;13.30;;;8.65;;
35919;SDS011;36160;53.370;-6.196;2023-01-24T06:30:21;18.73;;;11.13;;
35919;SDS011;36160;53.370;-6.196;2023-01-24T06:38:24;18.73;;;12.13;;
35919;SDS011;36160;53.370;-6.196;2023-01-24T06:40:57;18.85;;;11.77;;
35919;SDS011;36160;53.370;-6.196;2023-01-24T06:43:26;24.02;;;13.48;;
35919;SDS011;36160;53.370;-6.196;2023-01-24T06:45:54;26.95;;;13.40;;
35919;SDS011;36160;53.370;-6.196;2023-01-24T06:48:20;26.65;;;12.90;;
35919;SDS011;36160;53.370;-6.196;2023-01-24T06:50:46;26.73;;;14.15;;
35919;SDS011;36160;53.370;-6.196;2023-01-24T06:53:12;24.52;;;12.95;;
35919;SDS011;36160;53.370;-6.196;2023-01-24T06:55:39;33.03;;;16.52;;
35919;SDS011;36160;53.370;-6.196;2023-01-24T06:58:10;21.35;;;14.23;;
35919;SDS011;36160;53.370;-6.196;2023-01-24T07:00:36;27.25;;;16.48;;
35919;SDS011;36160;53.370;-6.196;2023-01-24T07:03:02;31.27;;;14.23;;
35919;SDS011;36160;53.370;-6.196;2023-01-24T07:05:33;32.72;;;16.48;;
35919;SDS011;36160;53.370;-6.196;2023-01-24T07:08:00;23.55;;;13.38;;
35919;SDS011;36160;53.370;-6.196;2023-01-24T07:10:27;22.10;;;13.52;;
35919;SDS011;36160;53.370;-6.196;2023-01-24T07:12:53;19.02;;;11.18;;
35919;SDS011;36160;53.370;-6.196;2023-01-24T07:15:19;23.42;;;12.50;;
35919;SDS011;36160;53.370;-6.196;2023-01-24T07:17:45;23.65;;;13.05;;
35919;SDS011;36160;53.370;-6.196;2023-01-24T07:20:12;24.98;;;12.45;;
35919;SDS011;36160;53.370;-6.196;2023-01-24T07:22:38;21.08;;;12.55;;
35919;SDS011;36160;53.370;-6.196;2023-01-24T07:25:15;15.10;;;10.30;;
35919;SDS011;36160;53.370;-6.196;2023-01-24T07:27:44;21.65;;;11.40;;
35919;SDS011;36160;53.370;-6.196;2023-01-24T07:30:11;21.75;;;11.40;;
35919;SDS011;36160;53.370;-6.196;2023-01-24T07:32:37;17.40;;;9.75;;
35919;SDS011;36160;53.370;-6.196;2023-01-24T07:35:04;21.73;;;12.88;;
35919;SDS011;36160;53.370;-6.196;2023-01-24T07:37:30;17.02;;;10.45;;
35919;SDS011;36160;53.370;-6.196;2023-01-24T07:39:56;13.48;;;9.52;;
35919;SDS011;36160;53.370;-6.196;2023-01-24T07:42:22;21.83;;;8.95;;
35919;SDS011;36160;53.370;-6.196;2023-01-24T07:44:48;32.72;;;10.00;;
35919;SDS011;36160;53.370;-6.196;2023-01-24T07:47:14;14.90;;;9.10;;
35919;SDS011;36160;53.370;-6.196;2023-01-24T07:49:40;13.85;;;9.23;;
35919;SDS011;36160;53.370;-6.196;2023-01-24T07:52:05;12.60;;;8.30;;
35919;SDS011;36160;53.370;-6.196;2023-01-24T07:54:31;14.98;;;9.25;;
35919;SDS011;36160;53.370;-6.196;2023-01-24T07:56:57;13.77;;;8.55;;
35919;SDS011;36160;53.370;-6.196;2023-01-24T07:59:22;15.70;;;9.32;;
35919;SDS011;36160;53.370;-6.196;2023-01-24T08:01:49;14.88;;;9.55;;
35919;SDS011;36160;53.370;-6.196;2023-01-24T08:04:14;10.75;;;7.88;;
35919;SDS011;36160;53.370;-6.196;2023-01-24T08:06:40;11.55;;;8.15;;
35919;SDS011;36160;53.370;-6.196;2023-01-24T08:09:28;13.30;;;9.02;;
35919;SDS011;36160;53.370;-6.196;2023-01-24T08:11:55;9.93;;;7.20;;
35919;SDS011;36160;53.370;-6.196;2023-01-24T08:14:21;10.15;;;6.55;;
35919;SDS011;36160;53.370;-6.196;2023-01-24T08:16:49;11.20;;;6.55;;
35919;SDS011;36160;53.370;-6.196;2023-01-24T08:19:15;7.97;;;6.45;;
35919;SDS011;36160;53.370;-6.196;2023-01-24T08:21:42;9.70;;;6.63;;
35919;SDS011;36160;53.370;-6.196;2023-01-24T08:24:08;9.02;;;6.43;;
35919;SDS011;36160;53.370;-6.196;2023-01-24T08:26:35;8.77;;;5.82;;
35919;SDS011;36160;53.370;-6.196;2023-01-24T08:29:01;11.18;;;6.25;;
35919;SDS011;36160;53.370;-6.196;2023-01-24T08:31:26;9.50;;;7.03;;
35919;SDS011;36160;53.370;-6.196;2023-01-24T08:33:52;10.23;;;7.47;;
35919;SDS011;36160;53.370;-6.196;2023-01-24T08:36:18;47.25;;;12.50;;
35919;SDS011;36160;53.370;-6.196;2023-01-24T08:38:48;43.90;;;11.17;;
35919;SDS011;36160;53.370;-6.196;2023-01-24T08:41:14;18.48;;;8.68;;
35919;SDS011;36160;53.370;-6.196;2023-01-24T08:43:40;19.52;;;11.13;;
35919;SDS011;36160;53.370;-6.196;2023-01-24T08:46:07;26.10;;;9.60;;
35919;SDS011;36160;53.370;-6.196;2023-01-24T08:48:32;14.98;;;7.80;;
35919;SDS011;36160;53.370;-6.196;2023-01-24T08:51:01;18.25;;;7.00;;
35919;SDS011;36160;53.370;-6.196;2023-01-24T08:53:28;8.30;;;5.20;;
35919;SDS011;36160;53.370;-6.196;2023-01-24T08:55:54;10.13;;;7.05;;
35919;SDS011;36160;53.370;-6.196;2023-01-24T08:58:19;14.23;;;6.90;;
35919;SDS011;36160;53.370;-6.196;2023-01-24T09:00:46;21.63;;;8.25;;
35919;SDS011;36160;53.370;-6.196;2023-01-24T09:03:12;25.33;;;8.77;;
35919;SDS011;36160;53.370;-6.196;2023-01-24T09:05:41;23.63;;;9.07;;
35919;SDS011;36160;53.370;-6.196;2023-01-24T09:08:07;24.17;;;9.07;;
35919;SDS011;36160;53.370;-6.196;2023-01-24T09:10:33;26.45;;;10.40;;
35919;SDS011;36160;53.370;-6.196;2023-01-24T09:13:00;49.00;;;10.70;;
35919;SDS011;36160;53.370;-6.196;2023-01-24T09:15:26;25.38;;;9.02;;
35919;SDS011;36160;53.370;-6.196;2023-01-24T09:17:52;12.65;;;7.78;;
35919;SDS011;36160;53.370;-6.196;2023-01-24T09:20:18;23.10;;;7.90;;
35919;SDS011;36160;53.370;-6.196;2023-01-24T09:22:44;14.73;;;6.82;;
35919;SDS011;36160;53.370;-6.196;2023-01-24T09:25:10;12.63;;;7.72;;
35919;SDS011;36160;53.370;-6.196;2023-01-24T09:27:36;14.73;;;8.18;;
35919;SDS011;36160;53.370;-6.196;2023-01-24T09:30:02;15.77;;;8.40;;
35919;SDS011;36160;53.370;-6.196;2023-01-24T09:32:30;21.80;;;8.95;;
35919;SDS011;36160;53.370;-6.196;2023-01-24T09:34:55;38.58;;;14.00;;
35919;SDS011;36160;53.370;-6.196;2023-01-24T09:37:21;42.05;;;13.70;;
35919;SDS011;36160;53.370;-6.196;2023-01-24T09:39:47;35.97;;;11.57;;
35919;SDS011;36160;53.370;-6.196;2023-01-24T09:47:41;37.17;;;13.13;;
35919;SDS011;36160;53.370;-6.196;2023-01-24T09:50:28;43.42;;;15.45;;
35919;SDS011;36160;53.370;-6.196;2023-01-24T09:53:12;34.80;;;14.02;;
35919;SDS011;36160;53.370;-6.196;2023-01-24T09:55:42;41.17;;;16.20;;
35919;SDS011;36160;53.370;-6.196;2023-01-24T10:00:54;24.50;;;13.50;;
35919;SDS011;36160;53.370;-6.196;2023-01-24T10:03:20;33.85;;;16.38;;
35919;SDS011;36160;53.370;-6.196;2023-01-24T10:05:48;27.88;;;14.18;;
35919;SDS011;36160;53.370;-6.196;2023-01-24T10:24:37;27.08;;;12.93;;
35919;SDS011;36160;53.370;-6.196;2023-01-24T10:27:16;26.13;;;15.02;;
35919;SDS011;36160;53.370;-6.196;2023-01-24T10:29:54;25.30;;;11.52;;
35919;SDS011;36160;53.370;-6.196;2023-01-24T10:32:30;19.48;;;12.95;;
35919;SDS011;36160;53.370;-6.196;2023-01-24T10:35:02;20.80;;;12.38;;
35919;SDS011;36160;53.370;-6.196;2023-01-24T10:37:42;23.52;;;14.02;;
35919;SDS011;36160;53.370;-6.196;2023-01-24T10:40:14;27.13;;;13.50;;
35919;SDS011;36160;53.370;-6.196;2023-01-24T10:42:41;26.88;;;14.52;;
35919;SDS011;36160;53.370;-6.196;2023-01-24T10:48:01;20.45;;;13.23;;
35919;SDS011;36160;53.370;-6.196;2023-01-24T10:50:35;19.88;;;12.75;;
35919;SDS011;36160;53.370;-6.196;2023-01-24T10:53:23;17.58;;;11.48;;
35919;SDS011;36160;53.370;-6.196;2023-01-24T10:55:59;20.85;;;12.13;;
35919;SDS011;36160;53.370;-6.196;2023-01-24T10:58:39;19.50;;;11.13;;
35919;SDS011;36160;53.370;-6.196;2023-01-24T11:04:17;20.38;;;10.88;;
35919;SDS011;36160;53.370;-6.196;2023-01-24T11:06:45;14.55;;;8.80;;
35919;SDS011;36160;53.370;-6.196;2023-01-24T11:09:13;22.27;;;10.15;;
35919;SDS011;36160;53.370;-6.196;2023-01-24T11:11:44;17.35;;;8.30;;
35919;SDS011;36160;53.370;-6.196;2023-01-24T11:14:16;18.08;;;8.88;;
35919;SDS011;36160;53.370;-6.196;2023-01-24T11:16:48;15.70;;;7.88;;
35919;SDS011;36160;53.370;-6.196;2023-01-24T11:19:23;21.60;;;8.95;;
35919;SDS011;36160;53.370;-6.196;2023-01-24T11:21:57;17.10;;;8.80;;
35919;SDS011;36160;53.370;-6.196;2023-01-24T11:24:24;15.98;;;8.85;;
35919;SDS011;36160;53.370;-6.196;2023-01-24T11:26:53;16.17;;;8.02;;
35919;SDS011;36160;53.370;-6.196;2023-01-24T11:29:27;14.25;;;8.90;;
35919;SDS011;36160;53.370;-6.196;2023-01-24T11:37:15;17.05;;;11.45;;
35919;SDS011;36160;53.370;-6.196;2023-01-24T11:43:06;12.52;;;7.00;;
35919;SDS011;36160;53.370;-6.196;2023-01-24T11:48:21;10.02;;;5.57;;
35919;SDS011;36160;53.370;-6.196;2023-01-24T11:53:50;7.22;;;3.88;;
35919;SDS011;36160;53.370;-6.196;2023-01-24T12:02:13;2.22;;;1.88;;
35919;SDS011;36160;53.370;-6.196;2023-01-24T12:10:21;4.25;;;1.35;;
35919;SDS011;36160;53.370;-6.196;2023-01-24T12:21:14;3.63;;;1.60;;
35919;SDS011;36160;53.370;-6.196;2023-01-24T12:23:51;1.25;;;1.10;;
35919;SDS011;36160;53.370;-6.196;2023-01-24T12:28:55;3.75;;;1.55;;
35919;SDS011;36160;53.370;-6.196;2023-01-24T12:39:37;5.13;;;1.50;;
35919;SDS011;36160;53.370;-6.196;2023-01-24T12:42:18;4.30;;;1.70;;
35919;SDS011;36160;53.370;-6.196;2023-01-24T12:44:55;5.13;;;1.75;;
35919;SDS011;36160;53.370;-6.196;2023-01-24T12:47:32;10.57;;;2.40;;
35919;SDS011;36160;53.370;-6.196;2023-01-24T12:57:48;2.47;;;1.42;;
35919;SDS011;36160;53.370;-6.196;2023-01-24T13:00:21;3.70;;;1.58;;
35919;SDS011;36160;53.370;-6.196;2023-01-24T13:03:02;4.15;;;1.63;;
35919;SDS011;36160;53.370;-6.196;2023-01-24T13:19:13;7.10;;;1.50;;
35919;SDS011;36160;53.370;-6.196;2023-01-24T13:22:09;3.15;;;1.50;;
35919;SDS011;36160;53.370;-6.196;2023-01-24T13:25:05;4.25;;;2.22;;
35919;SDS011;36160;53.370;-6.196;2023-01-24T13:31:04;3.88;;;1.35;;
35919;SDS011;36160;53.370;-6.196;2023-01-24T13:33:43;4.18;;;1.65;;
35919;SDS011;36160;53.370;-6.196;2023-01-24T13:36:36;3.42;;;1.63;;
35919;SDS011;36160;53.370;-6.196;2023-01-24T13:39:02;4.95;;;1.58;;
35919;SDS011;36160;53.370;-6.196;2023-01-24T13:49:16;3.75;;;1.90;;
35919;SDS011;36160;53.370;-6.196;2023-01-24T13:51:43;3.92;;;2.17;;
35919;SDS011;36160;53.370;-6.196;2023-01-24T13:57:19;3.30;;;1.47;;
35919;SDS011;36160;53.370;-6.196;2023-01-24T14:07:53;3.05;;;2.08;;
35919;SDS011;36160;53.370;-6.196;2023-01-24T14:10:38;2.53;;;1.45;;
35919;SDS011;36160;53.370;-6.196;2023-01-24T14:16:11;5.63;;;2.30;;
35919;SDS011;36160;53.370;-6.196;2023-01-24T14:21:18;2.30;;;1.60;;
35919;SDS011;36160;53.370;-6.196;2023-01-24T14:23:53;5.25;;;1.90;;
35919;SDS011;36160;53.370;-6.196;2023-01-24T14:26:23;2.63;;;1.83;;
35919;SDS011;36160;53.370;-6.196;2023-01-24T14:28:55;3.75;;;1.95;;
35919;SDS011;36160;53.370;-6.196;2023-01-24T14:31:25;1.83;;;1.40;;
35919;SDS011;36160;53.370;-6.196;2023-01-24T14:36:40;2.92;;;1.45;;
35919;SDS011;36160;53.370;-6.196;2023-01-24T14:41:48;4.85;;;1.73;;
35919;SDS011;36160;53.370;-6.196;2023-01-24T14:45:11;5.07;;;1.45;;
35919;SDS011;36160;53.370;-6.196;2023-01-24T14:47:22;3.88;;;1.67;;
35919;SDS011;36160;53.370;-6.196;2023-01-24T14:49:55;1.83;;;1.58;;
35919;SDS011;36160;53.370;-6.196;2023-01-24T14:52:26;3.72;;;2.60;;
35919;SDS011;36160;53.370;-6.196;2023-01-24T14:55:01;3.95;;;1.85;;
35919;SDS011;36160;53.370;-6.196;2023-01-24T14:58:12;4.43;;;1.45;;
35919;SDS011;36160;53.370;-6.196;2023-01-24T15:00:38;5.15;;;1.70;;
35919;SDS011;36160;53.370;-6.196;2023-01-24T15:03:04;4.72;;;1.65;;
35919;SDS011;36160;53.370;-6.196;2023-01-24T15:05:31;4.40;;;2.03;;
35919;SDS011;36160;53.370;-6.196;2023-01-24T15:08:00;5.90;;;1.80;;
35919;SDS011;36160;53.370;-6.196;2023-01-24T15:10:32;8.38;;;1.85;;
35919;SDS011;36160;53.370;-6.196;2023-01-24T15:13:04;5.38;;;1.90;;
35919;SDS011;36160;53.370;-6.196;2023-01-24T15:15:34;2.83;;;1.40;;
35919;SDS011;36160;53.370;-6.196;2023-01-24T15:18:04;4.28;;;1.58;;
35919;SDS011;36160;53.370;-6.196;2023-01-24T15:20:34;3.53;;;1.50;;
35919;SDS011;36160;53.370;-6.196;2023-01-24T15:23:00;5.00;;;1.52;;
35919;SDS011;36160;53.370;-6.196;2023-01-24T15:25:29;3.85;;;1.80;;
35919;SDS011;36160;53.370;-6.196;2023-01-24T15:28:06;2.90;;;1.67;;
35919;SDS011;36160;53.370;-6.196;2023-01-24T15:30:53;3.17;;;1.40;;
35919;SDS011;36160;53.370;-6.196;2023-01-24T15:33:20;5.72;;;1.77;;
35919;SDS011;36160;53.370;-6.196;2023-01-24T15:35:49;3.13;;;1.70;;
35919;SDS011;36160;53.370;-6.196;2023-01-24T15:38:28;3.17;;;1.90;;
35919;SDS011;36160;53.370;-6.196;2023-01-24T15:46:17;4.97;;;2.42;;
35919;SDS011;36160;53.370;-6.196;2023-01-24T15:52:00;3.75;;;1.70;;
35919;SDS011;36160;53.370;-6.196;2023-01-24T15:54:31;4.53;;;1.83;;
35919;SDS011;36160;53.370;-6.196;2023-01-24T15:57:02;4.75;;;1.60;;
35919;SDS011;36160;53.370;-6.196;2023-01-24T15:59:37;5.82;;;1.90;;
35919;SDS011;36160;53.370;-6.196;2023-01-24T16:02:07;5.22;;;2.20;;
35919;SDS011;36160;53.370;-6.196;2023-01-24T16:04:37;5.82;;;1.60;;
35919;SDS011;36160;53.370;-6.196;2023-01-24T16:26:36;9.75;;;4.68;;
35919;SDS011;36160;53.370;-6.196;2023-01-24T16:29:18;9.20;;;3.80;;
35919;SDS011;36160;53.370;-6.196;2023-01-24T16:31:46;9.60;;;3.92;;
35919;SDS011;36160;53.370;-6.196;2023-01-24T16:34:12;6.93;;;4.00;;
35919;SDS011;36160;53.370;-6.196;2023-01-24T16:36:38;7.72;;;3.78;;
35919;SDS011;36160;53.370;-6.196;2023-01-24T16:39:05;9.20;;;3.58;;
35919;SDS011;36160;53.370;-6.196;2023-01-24T16:41:31;7.97;;;3.85;;
35919;SDS011;36160;53.370;-6.196;2023-01-24T16:43:58;7.22;;;2.78;;
35919;SDS011;36160;53.370;-6.196;2023-01-24T16:46:24;5.32;;;2.85;;
35919;SDS011;36160;53.370;-6.196;2023-01-24T16:48:50;4.75;;;2.78;;
35919;SDS011;36160;53.370;-6.196;2023-01-24T16:51:16;4.65;;;2.95;;
35919;SDS011;36160;53.370;-6.196;2023-01-24T16:53:43;10.02;;;4.57;;
35919;SDS011;36160;53.370;-6.196;2023-01-24T16:56:09;21.45;;;7.78;;
35919;SDS011;36160;53.370;-6.196;2023-01-24T16:58:35;22.38;;;7.93;;
35919;SDS011;36160;53.370;-6.196;2023-01-24T17:01:05;28.67;;;9.18;;
35919;SDS011;36160;53.370;-6.196;2023-01-24T17:03:31;12.43;;;6.05;;
35919;SDS011;36160;53.370;-6.196;2023-01-24T17:05:57;10.15;;;5.38;;
35919;SDS011;36160;53.370;-6.196;2023-01-24T17:08:22;12.45;;;5.55;;
35919;SDS011;36160;53.370;-6.196;2023-01-24T17:10:48;11.45;;;4.78;;
35919;SDS011;36160;53.370;-6.196;2023-01-24T17:13:14;8.20;;;4.43;;
35919;SDS011;36160;53.370;-6.196;2023-01-24T17:15:39;7.18;;;4.72;;
35919;SDS011;36160;53.370;-6.196;2023-01-24T17:18:05;10.02;;;5.72;;
35919;SDS011;36160;53.370;-6.196;2023-01-24T17:20:31;11.40;;;6.10;;
35919;SDS011;36160;53.370;-6.196;2023-01-24T17:22:58;12.10;;;6.55;;
35919;SDS011;36160;53.370;-6.196;2023-01-24T17:25:30;20.50;;;9.05;;
35919;SDS011;36160;53.370;-6.196;2023-01-24T17:27:56;17.92;;;9.52;;
35919;SDS011;36160;53.370;-6.196;2023-01-24T17:30:22;18.45;;;10.75;;
35919;SDS011;36160;53.370;-6.196;2023-01-24T17:32:48;22.50;;;11.48;;
35919;SDS011;36160;53.370;-6.196;2023-01-24T17:35:14;19.85;;;11.48;;
35919;SDS011;36160;53.370;-6.196;2023-01-24T17:37:39;26.13;;;13.85;;
35919;SDS011;36160;53.370;-6.196;2023-01-24T17:40:05;25.15;;;14.32;;